sensor_id;sensor_type;location;lat;lon;timestamp;temperature;humidity
16974;DHT22;8603;46.944;7.412;2023-06-10T00:02:10;17.40;99.90
16974;DHT22;8603;46.944;7.412;2023-06-10T00:04:36;17.30;99.90
16974;DHT22;8603;46.944;7.412;2023-06-10T00:07:05;17.30;99.90
16974;DHT22;8603;46.944;7.412;2023-06-10T00:09:37;17.30;99.90
16974;DHT22;8603;46.944;7.412;2023-06-10T00:12:07;17.30;99.90
16974;DHT22;8603;46.944;7.412;2023-06-10T00:14:35;17.20;99.90
16974;DHT22;8603;46.944;7.412;2023-06-10T00:17:00;17.20;99.90
16974;DHT22;8603;46.944;7.412;2023-06-10T00:19:26;17.10;99.90
16974;DHT22;8603;46.944;7.412;2023-06-10T00:21:56;17.10;99.90
16974;DHT22;8603;46.944;7.412;2023-06-10T00:24:21;17.10;99.90
16974;DHT22;8603;46.944;7.412;2023-06-10T00:26:47;17.00;99.90
16974;DHT22;8603;46.944;7.412;2023-06-10T00:29:13;17.00;99.90
16974;DHT22;8603;46.944;7.412;2023-06-10T00:31:39;17.00;99.90
16974;DHT22;8603;46.944;7.412;2023-06-10T00:34:08;17.00;99.90
16974;DHT22;8603;46.944;7.412;2023-06-10T00:36:39;16.90;99.90
16974;DHT22;8603;46.944;7.412;2023-06-10T00:39:11;17.00;99.90
16974;DHT22;8603;46.944;7.412;2023-06-10T00:41:44;17.00;99.90
16974;DHT22;8603;46.944;7.412;2023-06-10T00:44:16;16.90;99.90
16974;DHT22;8603;46.944;7.412;2023-06-10T00:46:45;16.90;99.90
16974;DHT22;8603;46.944;7.412;2023-06-10T00:49:11;16.90;99.90
16974;DHT22;8603;46.944;7.412;2023-06-10T00:51:37;16.80;99.90
16974;DHT22;8603;46.944;7.412;2023-06-10T00:54:03;16.80;99.90
16974;DHT22;8603;46.944;7.412;2023-06-10T00:56:29;16.80;99.90
16974;DHT22;8603;46.944;7.412;2023-06-10T00:58:55;16.70;99.90
16974;DHT22;8603;46.944;7.412;2023-06-10T01:01:21;16.70;99.90
16974;DHT22;8603;46.944;7.412;2023-06-10T01:03:46;16.70;99.90
16974;DHT22;8603;46.944;7.412;2023-06-10T01:12:16;16.60;99.90
16974;DHT22;8603;46.944;7.412;2023-06-10T01:14:44;16.60;99.90
16974;DHT22;8603;46.944;7.412;2023-06-10T01:17:11;16.60;99.90
16974;DHT22;8603;46.944;7.412;2023-06-10T01:19:37;16.60;99.90
16974;DHT22;8603;46.944;7.412;2023-06-10T01:29:20;16.50;99.90
16974;DHT22;8603;46.944;7.412;2023-06-10T01:32:14;16.50;99.90
16974;DHT22;8603;46.944;7.412;2023-06-10T01:34:56;16.50;99.90
16974;DHT22;8603;46.944;7.412;2023-06-10T01:37:24;16.40;99.90
16974;DHT22;8603;46.944;7.412;2023-06-10T01:39:52;16.40;99.90
16974;DHT22;8603;46.944;7.412;2023-06-10T01:42:20;16.40;99.90
16974;DHT22;8603;46.944;7.412;2023-06-10T01:44:46;16.40;99.90
16974;DHT22;8603;46.944;7.412;2023-06-10T01:47:12;16.40;99.90
16974;DHT22;8603;46.944;7.412;2023-06-10T01:49:38;16.40;99.90
16974;DHT22;8603;46.944;7.412;2023-06-10T01:52:04;16.40;99.90
16974;DHT22;8603;46.944;7.412;2023-06-10T01:54:29;16.40;99.90
16974;DHT22;8603;46.944;7.412;2023-06-10T01:56:55;16.40;99.90
16974;DHT22;8603;46.944;7.412;2023-06-10T01:59:20;16.50;99.90
16974;DHT22;8603;46.944;7.412;2023-06-10T02:01:48;16.40;99.90
16974;DHT22;8603;46.944;7.412;2023-06-10T02:04:49;16.40;99.90
16974;DHT22;8603;46.944;7.412;2023-06-10T02:07:15;16.40;99.90
16974;DHT22;8603;46.944;7.412;2023-06-10T02:09:40;16.40;99.90
16974;DHT22;8603;46.944;7.412;2023-06-10T02:12:06;16.40;99.90
16974;DHT22;8603;46.944;7.412;2023-06-10T02:14:33;16.40;99.90
16974;DHT22;8603;46.944;7.412;2023-06-10T02:16:58;16.40;99.90
16974;DHT22;8603;46.944;7.412;2023-06-10T02:19:24;16.40;99.90
16974;DHT22;8603;46.944;7.412;2023-06-10T02:21:52;16.40;99.90
16974;DHT22;8603;46.944;7.412;2023-06-10T02:24:17;16.40;99.90
16974;DHT22;8603;46.944;7.412;2023-06-10T02:26:43;16.40;99.90
16974;DHT22;8603;46.944;7.412;2023-06-10T02:29:09;16.40;99.90
16974;DHT22;8603;46.944;7.412;2023-06-10T02:31:35;16.40;99.90
16974;DHT22;8603;46.944;7.412;2023-06-10T02:34:01;16.40;99.90
16974;DHT22;8603;46.944;7.412;2023-06-10T02:36:28;16.40;99.90
16974;DHT22;8603;46.944;7.412;2023-06-10T02:38:53;16.40;99.90
16974;DHT22;8603;46.944;7.412;2023-06-10T02:41:19;16.40;99.90
16974;DHT22;8603;46.944;7.412;2023-06-10T02:43:47;16.40;99.90
16974;DHT22;8603;46.944;7.412;2023-06-10T02:46:12;16.40;99.90
16974;DHT22;8603;46.944;7.412;2023-06-10T02:48:45;16.40;99.90
16974;DHT22;8603;46.944;7.412;2023-06-10T02:51:11;16.40;99.90
16974;DHT22;8603;46.944;7.412;2023-06-10T02:53:37;16.50;99.90
16974;DHT22;8603;46.944;7.412;2023-06-10T02:56:03;16.50;99.90
16974;DHT22;8603;46.944;7.412;2023-06-10T02:58:29;16.50;99.90
16974;DHT22;8603;46.944;7.412;2023-06-10T03:00:54;16.60;99.90
16974;DHT22;8603;46.944;7.412;2023-06-10T03:03:20;16.60;99.90
16974;DHT22;8603;46.944;7.412;2023-06-10T03:05:48;16.60;99.90
16974;DHT22;8603;46.944;7.412;2023-06-10T03:08:14;16.60;99.90
16974;DHT22;8603;46.944;7.412;2023-06-10T03:10:39;16.60;99.90
16974;DHT22;8603;46.944;7.412;2023-06-10T03:13:05;16.50;99.90
16974;DHT22;8603;46.944;7.412;2023-06-10T03:15:30;16.50;99.90
16974;DHT22;8603;46.944;7.412;2023-06-10T03:17:59;16.50;99.90
16974;DHT22;8603;46.944;7.412;2023-06-10T03:20:25;16.50;99.90
16974;DHT22;8603;46.944;7.412;2023-06-10T03:22:53;16.50;99.90
16974;DHT22;8603;46.944;7.412;2023-06-10T03:25:18;16.50;99.90
16974;DHT22;8603;46.944;7.412;2023-06-10T03:27:46;16.50;99.90
16974;DHT22;8603;46.944;7.412;2023-06-10T03:30:13;16.50;99.90
16974;DHT22;8603;46.944;7.412;2023-06-10T03:32:38;16.50;99.90
16974;DHT22;8603;46.944;7.412;2023-06-10T03:35:04;16.60;99.90
16974;DHT22;8603;46.944;7.412;2023-06-10T03:37:30;16.60;99.90
16974;DHT22;8603;46.944;7.412;2023-06-10T03:39:56;16.60;99.90
16974;DHT22;8603;46.944;7.412;2023-06-10T03:42:21;16.60;99.90
16974;DHT22;8603;46.944;7.412;2023-06-10T03:44:47;16.60;99.90
16974;DHT22;8603;46.944;7.412;2023-06-10T03:47:12;16.60;99.90
16974;DHT22;8603;46.944;7.412;2023-06-10T03:49:38;16.60;99.90
16974;DHT22;8603;46.944;7.412;2023-06-10T03:52:06;16.60;99.90
16974;DHT22;8603;46.944;7.412;2023-06-10T03:54:31;16.60;99.90
16974;DHT22;8603;46.944;7.412;2023-06-10T03:56:59;16.60;99.90
16974;DHT22;8603;46.944;7.412;2023-06-10T03:59:25;16.60;99.90
16974;DHT22;8603;46.944;7.412;2023-06-10T04:01:51;16.60;99.90
16974;DHT22;8603;46.944;7.412;2023-06-10T04:04:16;16.60;99.90
16974;DHT22;8603;46.944;7.412;2023-06-10T04:06:42;16.60;99.90
16974;DHT22;8603;46.944;7.412;2023-06-10T04:09:09;16.70;99.90
16974;DHT22;8603;46.944;7.412;2023-06-10T04:11:35;16.70;99.90
16974;DHT22;8603;46.944;7.412;2023-06-10T04:14:01;16.80;99.90
16974;DHT22;8603;46.944;7.412;2023-06-10T04:16:28;16.80;99.90
16974;DHT22;8603;46.944;7.412;2023-06-10T04:18:54;16.90;99.90
16974;DHT22;8603;46.944;7.412;2023-06-10T04:21:20;16.90;99.90
16974;DHT22;8603;46.944;7.412;2023-06-10T04:23:45;17.00;99.90
16974;DHT22;8603;46.944;7.412;2023-06-10T04:26:11;17.00;99.90
16974;DHT22;8603;46.944;7.412;2023-06-10T04:28:37;17.00;99.90
16974;DHT22;8603;46.944;7.412;2023-06-10T04:31:03;17.10;99.90
16974;DHT22;8603;46.944;7.412;2023-06-10T04:33:30;17.10;99.90
16974;DHT22;8603;46.944;7.412;2023-06-10T04:35:56;17.20;99.90
16974;DHT22;8603;46.944;7.412;2023-06-10T04:38:21;17.20;99.90
16974;DHT22;8603;46.944;7.412;2023-06-10T04:40:47;17.20;99.90
16974;DHT22;8603;46.944;7.412;2023-06-10T04:43:13;17.30;99.90
16974;DHT22;8603;46.944;7.412;2023-06-10T04:45:39;17.30;99.90
16974;DHT22;8603;46.944;7.412;2023-06-10T04:48:05;17.20;99.90
16974;DHT22;8603;46.944;7.412;2023-06-10T04:50:30;17.20;99.90
16974;DHT22;8603;46.944;7.412;2023-06-10T04:52:58;17.20;99.90
16974;DHT22;8603;46.944;7.412;2023-06-10T04:55:24;17.20;99.90
16974;DHT22;8603;46.944;7.412;2023-06-10T04:57:50;17.20;99.90
16974;DHT22;8603;46.944;7.412;2023-06-10T05:00:16;17.20;99.90
16974;DHT22;8603;46.944;7.412;2023-06-10T05:02:42;17.20;99.90
16974;DHT22;8603;46.944;7.412;2023-06-10T05:05:08;17.20;99.90
16974;DHT22;8603;46.944;7.412;2023-06-10T05:07:33;17.20;99.90
16974;DHT22;8603;46.944;7.412;2023-06-10T05:09:59;17.30;99.90
16974;DHT22;8603;46.944;7.412;2023-06-10T05:12:25;17.30;99.90
16974;DHT22;8603;46.944;7.412;2023-06-10T05:14:51;17.30;99.90
16974;DHT22;8603;46.944;7.412;2023-06-10T05:17:17;17.30;99.90
16974;DHT22;8603;46.944;7.412;2023-06-10T05:19:42;17.30;99.90
16974;DHT22;8603;46.944;7.412;2023-06-10T05:22:08;17.30;99.90
16974;DHT22;8603;46.944;7.412;2023-06-10T05:24:34;17.20;99.90
16974;DHT22;8603;46.944;7.412;2023-06-10T05:27:00;17.20;99.90
16974;DHT22;8603;46.944;7.412;2023-06-10T05:29:25;17.20;99.90
16974;DHT22;8603;46.944;7.412;2023-06-10T05:31:51;17.20;99.90
16974;DHT22;8603;46.944;7.412;2023-06-10T05:34:17;17.20;99.90
16974;DHT22;8603;46.944;7.412;2023-06-10T05:36:43;17.20;99.90
16974;DHT22;8603;46.944;7.412;2023-06-10T05:39:09;17.20;99.90
16974;DHT22;8603;46.944;7.412;2023-06-10T05:41:35;17.20;99.90
16974;DHT22;8603;46.944;7.412;2023-06-10T05:44:01;17.20;99.90
16974;DHT22;8603;46.944;7.412;2023-06-10T05:46:26;17.20;99.90
16974;DHT22;8603;46.944;7.412;2023-06-10T05:48:52;17.30;99.90
16974;DHT22;8603;46.944;7.412;2023-06-10T05:51:17;17.30;99.90
16974;DHT22;8603;46.944;7.412;2023-06-10T05:53:43;17.30;99.90
16974;DHT22;8603;46.944;7.412;2023-06-10T05:56:08;17.30;99.90
16974;DHT22;8603;46.944;7.412;2023-06-10T05:58:34;17.30;99.90
16974;DHT22;8603;46.944;7.412;2023-06-10T06:01:00;17.30;99.90
16974;DHT22;8603;46.944;7.412;2023-06-10T06:03:25;17.40;99.90
16974;DHT22;8603;46.944;7.412;2023-06-10T06:05:52;17.40;99.90
16974;DHT22;8603;46.944;7.412;2023-06-10T06:08:18;17.50;99.90
16974;DHT22;8603;46.944;7.412;2023-06-10T06:10:45;17.50;99.90
16974;DHT22;8603;46.944;7.412;2023-06-10T06:13:11;17.50;99.90
16974;DHT22;8603;46.944;7.412;2023-06-10T06:15:36;17.50;99.90
16974;DHT22;8603;46.944;7.412;2023-06-10T06:18:02;17.60;99.90
16974;DHT22;8603;46.944;7.412;2023-06-10T06:20:27;17.70;99.90
16974;DHT22;8603;46.944;7.412;2023-06-10T06:22:54;17.70;99.90
16974;DHT22;8603;46.944;7.412;2023-06-10T06:25:19;17.80;99.90
16974;DHT22;8603;46.944;7.412;2023-06-10T06:27:45;18.00;99.90
16974;DHT22;8603;46.944;7.412;2023-06-10T06:30:11;18.20;99.90
16974;DHT22;8603;46.944;7.412;2023-06-10T06:32:37;18.30;99.90
16974;DHT22;8603;46.944;7.412;2023-06-10T06:35:03;18.40;99.90
16974;DHT22;8603;46.944;7.412;2023-06-10T06:37:31;18.60;99.90
16974;DHT22;8603;46.944;7.412;2023-06-10T06:39:58;18.80;99.90
16974;DHT22;8603;46.944;7.412;2023-06-10T06:42:23;18.90;99.90
16974;DHT22;8603;46.944;7.412;2023-06-10T06:44:49;19.10;99.90
16974;DHT22;8603;46.944;7.412;2023-06-10T06:47:14;19.30;99.90
16974;DHT22;8603;46.944;7.412;2023-06-10T06:49:40;19.50;99.90
16974;DHT22;8603;46.944;7.412;2023-06-10T06:52:06;19.70;99.90
16974;DHT22;8603;46.944;7.412;2023-06-10T06:54:31;19.80;99.90
16974;DHT22;8603;46.944;7.412;2023-06-10T06:56:57;19.90;99.90
16974;DHT22;8603;46.944;7.412;2023-06-10T06:59:23;20.00;99.90
16974;DHT22;8603;46.944;7.412;2023-06-10T07:01:49;20.00;99.90
16974;DHT22;8603;46.944;7.412;2023-06-10T07:04:15;20.20;99.90
16974;DHT22;8603;46.944;7.412;2023-06-10T07:06:41;20.30;99.90
16974;DHT22;8603;46.944;7.412;2023-06-10T07:09:07;20.30;99.90
16974;DHT22;8603;46.944;7.412;2023-06-10T07:11:34;20.20;99.90
16974;DHT22;8603;46.944;7.412;2023-06-10T07:14:00;20.20;99.90
16974;DHT22;8603;46.944;7.412;2023-06-10T07:16:25;20.20;99.90
16974;DHT22;8603;46.944;7.412;2023-06-10T07:18:52;20.20;99.90
16974;DHT22;8603;46.944;7.412;2023-06-10T07:21:18;20.30;99.90
16974;DHT22;8603;46.944;7.412;2023-06-10T07:23:44;20.30;99.90
16974;DHT22;8603;46.944;7.412;2023-06-10T07:26:12;20.40;99.90
16974;DHT22;8603;46.944;7.412;2023-06-10T07:28:39;20.40;99.90
16974;DHT22;8603;46.944;7.412;2023-06-10T07:31:05;20.60;99.90
16974;DHT22;8603;46.944;7.412;2023-06-10T07:33:34;20.60;99.90
16974;DHT22;8603;46.944;7.412;2023-06-10T07:36:00;20.70;99.90
16974;DHT22;8603;46.944;7.412;2023-06-10T07:38:26;20.80;99.90
16974;DHT22;8603;46.944;7.412;2023-06-10T07:40:52;20.80;99.90
16974;DHT22;8603;46.944;7.412;2023-06-10T07:43:18;21.00;99.90
16974;DHT22;8603;46.944;7.412;2023-06-10T07:45:43;21.00;99.90
16974;DHT22;8603;46.944;7.412;2023-06-10T07:48:09;21.10;99.90
16974;DHT22;8603;46.944;7.412;2023-06-10T07:50:35;21.20;99.90
16974;DHT22;8603;46.944;7.412;2023-06-10T07:53:06;21.30;99.90
16974;DHT22;8603;46.944;7.412;2023-06-10T07:55:32;21.40;99.90
16974;DHT22;8603;46.944;7.412;2023-06-10T07:57:57;21.60;99.90
16974;DHT22;8603;46.944;7.412;2023-06-10T08:00:23;21.70;99.90
16974;DHT22;8603;46.944;7.412;2023-06-10T08:02:48;21.80;99.90
16974;DHT22;8603;46.944;7.412;2023-06-10T08:05:14;21.80;99.90
16974;DHT22;8603;46.944;7.412;2023-06-10T08:07:40;21.70;99.90
16974;DHT22;8603;46.944;7.412;2023-06-10T08:10:06;21.80;99.90
16974;DHT22;8603;46.944;7.412;2023-06-10T08:12:33;21.90;99.90
16974;DHT22;8603;46.944;7.412;2023-06-10T08:14:59;22.00;99.90
16974;DHT22;8603;46.944;7.412;2023-06-10T08:17:42;22.20;99.90
16974;DHT22;8603;46.944;7.412;2023-06-10T08:20:08;22.20;99.90
16974;DHT22;8603;46.944;7.412;2023-06-10T08:22:43;22.20;99.90
16974;DHT22;8603;46.944;7.412;2023-06-10T08:25:11;22.30;99.90
16974;DHT22;8603;46.944;7.412;2023-06-10T08:27:42;22.40;99.90
16974;DHT22;8603;46.944;7.412;2023-06-10T08:30:28;22.50;99.90
16974;DHT22;8603;46.944;7.412;2023-06-10T08:32:55;22.60;99.90
16974;DHT22;8603;46.944;7.412;2023-06-10T08:35:21;22.60;99.90
16974;DHT22;8603;46.944;7.412;2023-06-10T08:37:47;22.70;99.90
16974;DHT22;8603;46.944;7.412;2023-06-10T08:40:12;22.70;99.90
16974;DHT22;8603;46.944;7.412;2023-06-10T08:43:00;22.90;99.90
16974;DHT22;8603;46.944;7.412;2023-06-10T08:45:30;23.10;99.90
16974;DHT22;8603;46.944;7.412;2023-06-10T08:48:03;23.20;99.90
16974;DHT22;8603;46.944;7.412;2023-06-10T08:50:34;23.30;99.90
16974;DHT22;8603;46.944;7.412;2023-06-10T08:53:00;23.40;99.90
16974;DHT22;8603;46.944;7.412;2023-06-10T08:55:30;23.60;99.90
16974;DHT22;8603;46.944;7.412;2023-06-10T08:58:34;23.70;99.90
16974;DHT22;8603;46.944;7.412;2023-06-10T09:01:07;23.80;99.90
16974;DHT22;8603;46.944;7.412;2023-06-10T09:03:45;23.90;99.90
16974;DHT22;8603;46.944;7.412;2023-06-10T09:06:11;24.20;99.90
16974;DHT22;8603;46.944;7.412;2023-06-10T09:08:50;24.50;99.90
16974;DHT22;8603;46.944;7.412;2023-06-10T09:11:19;24.80;99.90
16974;DHT22;8603;46.944;7.412;2023-06-10T09:13:45;25.10;99.90
16974;DHT22;8603;46.944;7.412;2023-06-10T09:16:11;25.00;99.90
16974;DHT22;8603;46.944;7.412;2023-06-10T09:18:38;25.10;99.90
16974;DHT22;8603;46.944;7.412;2023-06-10T09:21:03;25.40;99.90
16974;DHT22;8603;46.944;7.412;2023-06-10T09:23:29;25.90;99.90
16974;DHT22;8603;46.944;7.412;2023-06-10T09:25:59;26.50;99.90
16974;DHT22;8603;46.944;7.412;2023-06-10T09:28:25;27.30;99.90
16974;DHT22;8603;46.944;7.412;2023-06-10T09:31:04;28.00;99.90
16974;DHT22;8603;46.944;7.412;2023-06-10T09:33:31;28.50;99.90
16974;DHT22;8603;46.944;7.412;2023-06-10T09:35:56;28.50;99.90
16974;DHT22;8603;46.944;7.412;2023-06-10T09:38:30;28.30;99.90
16974;DHT22;8603;46.944;7.412;2023-06-10T09:41:17;28.80;99.90
16974;DHT22;8603;46.944;7.412;2023-06-10T09:43:44;29.40;99.90
16974;DHT22;8603;46.944;7.412;2023-06-10T09:46:19;30.20;99.90
16974;DHT22;8603;46.944;7.412;2023-06-10T09:48:46;30.90;99.90
16974;DHT22;8603;46.944;7.412;2023-06-10T09:51:14;31.30;99.90
16974;DHT22;8603;46.944;7.412;2023-06-10T09:53:40;31.80;99.90
16974;DHT22;8603;46.944;7.412;2023-06-10T09:56:16;31.70;99.90
16974;DHT22;8603;46.944;7.412;2023-06-10T10:02:05;32.40;99.90
16974;DHT22;8603;46.944;7.412;2023-06-10T10:08:34;32.40;99.40
16974;DHT22;8603;46.944;7.412;2023-06-10T10:11:10;31.80;98.10
16974;DHT22;8603;46.944;7.412;2023-06-10T10:13:39;31.70;99.40
16974;DHT22;8603;46.944;7.412;2023-06-10T10:16:46;31.60;98.30
16974;DHT22;8603;46.944;7.412;2023-06-10T10:19:37;31.20;97.60
16974;DHT22;8603;46.944;7.412;2023-06-10T10:22:58;30.60;98.40
16974;DHT22;8603;46.944;7.412;2023-06-10T10:25:59;30.40;99.10
16974;DHT22;8603;46.944;7.412;2023-06-10T10:32:16;31.00;98.80
16974;DHT22;8603;46.944;7.412;2023-06-10T10:44:21;30.00;97.70
16974;DHT22;8603;46.944;7.412;2023-06-10T10:46:54;29.50;99.00
16974;DHT22;8603;46.944;7.412;2023-06-10T10:56:12;29.00;98.60
16974;DHT22;8603;46.944;7.412;2023-06-10T10:59:06;29.10;98.60
16974;DHT22;8603;46.944;7.412;2023-06-10T11:05:48;29.60;98.50
16974;DHT22;8603;46.944;7.412;2023-06-10T11:12:06;30.40;97.00
16974;DHT22;8603;46.944;7.412;2023-06-10T11:24:33;30.90;95.00
16974;DHT22;8603;46.944;7.412;2023-06-10T11:27:37;30.60;94.30
16974;DHT22;8603;46.944;7.412;2023-06-10T11:30:39;29.20;94.40
16974;DHT22;8603;46.944;7.412;2023-06-10T11:34:20;28.70;95.50
16974;DHT22;8603;46.944;7.412;2023-06-10T11:36:55;28.20;95.80
16974;DHT22;8603;46.944;7.412;2023-06-10T11:39:32;28.20;95.80
16974;DHT22;8603;46.944;7.412;2023-06-10T11:42:58;28.40;95.30
16974;DHT22;8603;46.944;7.412;2023-06-10T11:45:27;28.90;95.50
16974;DHT22;8603;46.944;7.412;2023-06-10T11:48:15;29.00;94.70
16974;DHT22;8603;46.944;7.412;2023-06-10T12:04:40;26.80;96.20
16974;DHT22;8603;46.944;7.412;2023-06-10T12:07:41;26.70;97.70
16974;DHT22;8603;46.944;7.412;2023-06-10T12:13:57;26.30;99.10
16974;DHT22;8603;46.944;7.412;2023-06-10T12:16:30;26.00;99.10
16974;DHT22;8603;46.944;7.412;2023-06-10T12:19:02;25.80;99.40
16974;DHT22;8603;46.944;7.412;2023-06-10T12:21:30;25.60;99.80
16974;DHT22;8603;46.944;7.412;2023-06-10T12:24:11;25.50;99.80
16974;DHT22;8603;46.944;7.412;2023-06-10T12:26:44;25.60;99.60
16974;DHT22;8603;46.944;7.412;2023-06-10T12:32:12;26.40;99.40
16974;DHT22;8603;46.944;7.412;2023-06-10T12:34:43;27.10;99.30
16974;DHT22;8603;46.944;7.412;2023-06-10T12:37:13;27.60;97.50
16974;DHT22;8603;46.944;7.412;2023-06-10T12:39:51;27.90;97.60
16974;DHT22;8603;46.944;7.412;2023-06-10T12:42:25;28.30;98.00
16974;DHT22;8603;46.944;7.412;2023-06-10T12:50:39;29.20;96.80
16974;DHT22;8603;46.944;7.412;2023-06-10T12:53:47;29.40;96.30
16974;DHT22;8603;46.944;7.412;2023-06-10T12:56:23;29.60;96.20
16974;DHT22;8603;46.944;7.412;2023-06-10T12:58:55;29.60;95.80
16974;DHT22;8603;46.944;7.412;2023-06-10T13:01:26;29.50;95.80
16974;DHT22;8603;46.944;7.412;2023-06-10T13:03:55;29.40;95.80
16974;DHT22;8603;46.944;7.412;2023-06-10T13:06:20;29.40;94.90
16974;DHT22;8603;46.944;7.412;2023-06-10T13:09:16;29.40;95.70
16974;DHT22;8603;46.944;7.412;2023-06-10T13:11:47;29.40;94.30
16974;DHT22;8603;46.944;7.412;2023-06-10T13:18:04;29.10;94.50
16974;DHT22;8603;46.944;7.412;2023-06-10T13:20:35;29.30;95.10
16974;DHT22;8603;46.944;7.412;2023-06-10T13:23:27;29.50;95.00
16974;DHT22;8603;46.944;7.412;2023-06-10T13:25:53;29.80;94.60
16974;DHT22;8603;46.944;7.412;2023-06-10T13:32:18;30.10;93.90
16974;DHT22;8603;46.944;7.412;2023-06-10T15:42:20;27.10;99.90
16974;DHT22;8603;46.944;7.412;2023-06-10T15:44:52;27.20;99.90
16974;DHT22;8603;46.944;7.412;2023-06-10T15:47:53;27.30;99.90
16974;DHT22;8603;46.944;7.412;2023-06-10T15:54:10;27.40;99.90
16974;DHT22;8603;46.944;7.412;2023-06-10T15:56:38;27.30;99.90
16974;DHT22;8603;46.944;7.412;2023-06-10T16:02:17;27.00;99.90
16974;DHT22;8603;46.944;7.412;2023-06-10T16:04:45;27.00;99.90
16974;DHT22;8603;46.944;7.412;2023-06-10T16:07:11;27.00;99.90
16974;DHT22;8603;46.944;7.412;2023-06-10T16:09:41;27.00;99.80
16974;DHT22;8603;46.944;7.412;2023-06-10T16:12:09;27.10;99.90
16974;DHT22;8603;46.944;7.412;2023-06-10T16:14:35;27.20;99.90
16974;DHT22;8603;46.944;7.412;2023-06-10T16:17:01;27.20;99.90
16974;DHT22;8603;46.944;7.412;2023-06-10T16:19:27;27.10;99.90
16974;DHT22;8603;46.944;7.412;2023-06-10T16:21:52;27.10;99.90
16974;DHT22;8603;46.944;7.412;2023-06-10T16:24:18;27.10;99.90
16974;DHT22;8603;46.944;7.412;2023-06-10T16:26:44;27.00;99.90
16974;DHT22;8603;46.944;7.412;2023-06-10T16:29:10;27.00;99.90
16974;DHT22;8603;46.944;7.412;2023-06-10T16:31:35;27.00;99.90
16974;DHT22;8603;46.944;7.412;2023-06-10T16:34:01;27.00;99.90
16974;DHT22;8603;46.944;7.412;2023-06-10T16:36:27;27.00;99.90
16974;DHT22;8603;46.944;7.412;2023-06-10T16:38:55;27.00;99.80
16974;DHT22;8603;46.944;7.412;2023-06-10T16:41:24;27.00;99.80
16974;DHT22;8603;46.944;7.412;2023-06-10T16:43:52;27.00;99.90
16974;DHT22;8603;46.944;7.412;2023-06-10T16:46:39;27.00;99.90
16974;DHT22;8603;46.944;7.412;2023-06-10T16:49:12;26.90;99.90
16974;DHT22;8603;46.944;7.412;2023-06-10T16:52:01;26.80;99.90
16974;DHT22;8603;46.944;7.412;2023-06-10T16:54:42;26.70;99.90
16974;DHT22;8603;46.944;7.412;2023-06-10T16:57:19;26.60;99.90
16974;DHT22;8603;46.944;7.412;2023-06-10T16:59:53;26.50;99.90
16974;DHT22;8603;46.944;7.412;2023-06-10T17:02:57;26.50;99.90
16974;DHT22;8603;46.944;7.412;2023-06-10T17:05:33;26.50;99.90
16974;DHT22;8603;46.944;7.412;2023-06-10T17:08:19;26.50;99.90
16974;DHT22;8603;46.944;7.412;2023-06-10T17:11:04;26.50;99.90
16974;DHT22;8603;46.944;7.412;2023-06-10T17:13:43;26.40;99.90
16974;DHT22;8603;46.944;7.412;2023-06-10T17:16:12;26.30;99.90
16974;DHT22;8603;46.944;7.412;2023-06-10T17:18:38;26.30;99.90
16974;DHT22;8603;46.944;7.412;2023-06-10T17:21:05;26.20;99.90
16974;DHT22;8603;46.944;7.412;2023-06-10T17:23:33;26.10;99.90
16974;DHT22;8603;46.944;7.412;2023-06-10T17:26:16;25.90;99.90
16974;DHT22;8603;46.944;7.412;2023-06-10T17:29:02;25.90;99.90
16974;DHT22;8603;46.944;7.412;2023-06-10T17:35:20;25.70;99.90
16974;DHT22;8603;46.944;7.412;2023-06-10T17:37:56;25.60;99.90
16974;DHT22;8603;46.944;7.412;2023-06-10T17:40:23;25.50;99.90
16974;DHT22;8603;46.944;7.412;2023-06-10T17:42:54;25.40;99.90
16974;DHT22;8603;46.944;7.412;2023-06-10T17:45:23;25.30;99.90
16974;DHT22;8603;46.944;7.412;2023-06-10T17:47:48;25.30;99.90
16974;DHT22;8603;46.944;7.412;2023-06-10T17:50:22;25.10;99.90
16974;DHT22;8603;46.944;7.412;2023-06-10T17:52:50;25.10;99.90
16974;DHT22;8603;46.944;7.412;2023-06-10T17:55:25;24.90;99.90
16974;DHT22;8603;46.944;7.412;2023-06-10T17:57:55;24.70;99.90
16974;DHT22;8603;46.944;7.412;2023-06-10T18:00:21;24.60;99.90
16974;DHT22;8603;46.944;7.412;2023-06-10T18:02:51;24.50;99.90
16974;DHT22;8603;46.944;7.412;2023-06-10T18:08:23;24.20;99.90
16974;DHT22;8603;46.944;7.412;2023-06-10T18:13:45;24.10;99.90
16974;DHT22;8603;46.944;7.412;2023-06-10T18:16:20;23.90;99.90
16974;DHT22;8603;46.944;7.412;2023-06-10T18:18:46;23.80;99.90
16974;DHT22;8603;46.944;7.412;2023-06-10T18:21:13;23.80;99.90
16974;DHT22;8603;46.944;7.412;2023-06-10T18:24:00;23.70;99.90
16974;DHT22;8603;46.944;7.412;2023-06-10T18:26:25;23.70;99.90
16974;DHT22;8603;46.944;7.412;2023-06-10T18:28:51;23.60;99.90
16974;DHT22;8603;46.944;7.412;2023-06-10T18:31:20;23.60;99.90
16974;DHT22;8603;46.944;7.412;2023-06-10T18:33:49;23.60;99.90
16974;DHT22;8603;46.944;7.412;2023-06-10T18:36:15;23.50;99.90
16974;DHT22;8603;46.944;7.412;2023-06-10T18:38:40;23.40;99.90
16974;DHT22;8603;46.944;7.412;2023-06-10T18:41:06;23.20;99.90
16974;DHT22;8603;46.944;7.412;2023-06-10T18:43:34;23.10;99.90
16974;DHT22;8603;46.944;7.412;2023-06-10T18:46:02;22.90;99.90
16974;DHT22;8603;46.944;7.412;2023-06-10T18:48:28;22.80;99.90
16974;DHT22;8603;46.944;7.412;2023-06-10T18:50:54;22.60;99.90
16974;DHT22;8603;46.944;7.412;2023-06-10T18:56:00;22.50;99.90
16974;DHT22;8603;46.944;7.412;2023-06-10T18:59:30;22.30;99.90
16974;DHT22;8603;46.944;7.412;2023-06-10T19:06:17;22.00;99.90
16974;DHT22;8603;46.944;7.412;2023-06-10T19:09:04;21.90;99.90
16974;DHT22;8603;46.944;7.412;2023-06-10T19:11:30;21.80;99.90
16974;DHT22;8603;46.944;7.412;2023-06-10T19:13:59;21.70;99.90
16974;DHT22;8603;46.944;7.412;2023-06-10T19:16:36;21.60;99.90
16974;DHT22;8603;46.944;7.412;2023-06-10T19:19:09;21.50;99.90
16974;DHT22;8603;46.944;7.412;2023-06-10T19:24:35;21.40;99.90
16974;DHT22;8603;46.944;7.412;2023-06-10T19:27:17;21.30;99.90
16974;DHT22;8603;46.944;7.412;2023-06-10T19:33:10;21.10;99.90
16974;DHT22;8603;46.944;7.412;2023-06-10T19:36:09;20.90;99.90
16974;DHT22;8603;46.944;7.412;2023-06-10T19:45:42;20.80;99.90
16974;DHT22;8603;46.944;7.412;2023-06-10T20:10:08;20.40;99.90
16974;DHT22;8603;46.944;7.412;2023-06-10T20:12:34;20.30;99.90
16974;DHT22;8603;46.944;7.412;2023-06-10T20:15:00;20.40;99.90
16974;DHT22;8603;46.944;7.412;2023-06-10T20:17:26;20.20;99.90
16974;DHT22;8603;46.944;7.412;2023-06-10T20:19:52;20.20;99.90
16974;DHT22;8603;46.944;7.412;2023-06-10T20:22:19;20.20;99.90
16974;DHT22;8603;46.944;7.412;2023-06-10T20:24:49;20.10;99.90
16974;DHT22;8603;46.944;7.412;2023-06-10T20:27:15;20.00;99.90
16974;DHT22;8603;46.944;7.412;2023-06-10T20:29:41;19.90;99.90
16974;DHT22;8603;46.944;7.412;2023-06-10T20:32:07;19.80;99.90
16974;DHT22;8603;46.944;7.412;2023-06-10T20:34:32;19.80;99.90
16974;DHT22;8603;46.944;7.412;2023-06-10T20:36:58;19.70;99.90
16974;DHT22;8603;46.944;7.412;2023-06-10T20:39:25;19.60;99.90
16974;DHT22;8603;46.944;7.412;2023-06-10T20:41:50;19.70;99.90
16974;DHT22;8603;46.944;7.412;2023-06-10T20:44:16;19.60;99.90